sensor_id;sensor_type;location;lat;lon;timestamp;P1;durP1;ratioP1;P2;durP2;ratioP2
20122;SDS011;10222;50.848;4.336;2023-03-19T00:01:04;2.67;;;1.40;;
20122;SDS011;10222;50.848;4.336;2023-03-19T00:03:32;1.30;;;0.93;;
20122;SDS011;10222;50.848;4.336;2023-03-19T00:05:58;1.87;;;1.17;;
20122;SDS011;10222;50.848;4.336;2023-03-19T00:08:26;1.20;;;1.10;;
20122;SDS011;10222;50.848;4.336;2023-03-19T00:10:52;1.43;;;0.90;;
20122;SDS011;10222;50.848;4.336;2023-03-19T00:13:18;1.07;;;0.90;;
20122;SDS011;10222;50.848;4.336;2023-03-19T00:15:44;1.60;;;1.00;;
20122;SDS011;10222;50.848;4.336;2023-03-19T00:18:11;2.53;;;1.07;;
20122;SDS011;10222;50.848;4.336;2023-03-19T00:20:37;1.10;;;1.00;;
20122;SDS011;10222;50.848;4.336;2023-03-19T00:23:03;1.57;;;1.20;;
20122;SDS011;10222;50.848;4.336;2023-03-19T00:25:30;1.87;;;1.43;;
20122;SDS011;10222;50.848;4.336;2023-03-19T00:27:57;2.87;;;1.43;;
20122;SDS011;10222;50.848;4.336;2023-03-19T00:30:23;3.30;;;1.67;;
20122;SDS011;10222;50.848;4.336;2023-03-19T00:32:49;1.97;;;1.30;;
20122;SDS011;10222;50.848;4.336;2023-03-19T00:35:16;1.87;;;1.47;;
20122;SDS011;10222;50.848;4.336;2023-03-19T00:37:42;2.80;;;1.93;;
20122;SDS011;10222;50.848;4.336;2023-03-19T00:40:08;2.87;;;1.47;;
20122;SDS011;10222;50.848;4.336;2023-03-19T00:42:35;3.23;;;1.50;;
20122;SDS011;10222;50.848;4.336;2023-03-19T00:45:02;2.47;;;1.47;;
20122;SDS011;10222;50.848;4.336;2023-03-19T00:47:29;2.00;;;1.60;;
20122;SDS011;10222;50.848;4.336;2023-03-19T00:49:56;3.63;;;1.50;;
20122;SDS011;10222;50.848;4.336;2023-03-19T00:52:22;2.80;;;1.43;;
20122;SDS011;10222;50.848;4.336;2023-03-19T00:54:49;3.30;;;1.57;;
20122;SDS011;10222;50.848;4.336;2023-03-19T00:57:16;2.63;;;1.50;;
20122;SDS011;10222;50.848;4.336;2023-03-19T00:59:42;3.73;;;1.90;;
20122;SDS011;10222;50.848;4.336;2023-03-19T01:02:08;1.87;;;1.43;;
20122;SDS011;10222;50.848;4.336;2023-03-19T01:04:35;5.53;;;1.47;;
20122;SDS011;10222;50.848;4.336;2023-03-19T01:07:02;4.53;;;1.80;;
20122;SDS011;10222;50.848;4.336;2023-03-19T01:09:28;1.90;;;1.70;;
20122;SDS011;10222;50.848;4.336;2023-03-19T01:11:55;1.97;;;1.33;;
20122;SDS011;10222;50.848;4.336;2023-03-19T01:14:21;2.97;;;2.17;;
20122;SDS011;10222;50.848;4.336;2023-03-19T01:16:47;2.37;;;1.60;;
20122;SDS011;10222;50.848;4.336;2023-03-19T01:19:14;2.63;;;1.53;;
20122;SDS011;10222;50.848;4.336;2023-03-19T01:21:40;3.43;;;1.87;;
20122;SDS011;10222;50.848;4.336;2023-03-19T01:24:11;3.17;;;2.03;;
20122;SDS011;10222;50.848;4.336;2023-03-19T01:26:37;3.80;;;1.73;;
20122;SDS011;10222;50.848;4.336;2023-03-19T01:29:03;3.93;;;1.70;;
20122;SDS011;10222;50.848;4.336;2023-03-19T01:31:30;3.87;;;1.70;;
20122;SDS011;10222;50.848;4.336;2023-03-19T01:33:58;4.73;;;1.70;;
20122;SDS011;10222;50.848;4.336;2023-03-19T01:36:24;3.17;;;1.77;;
20122;SDS011;10222;50.848;4.336;2023-03-19T01:38:50;3.80;;;1.87;;
20122;SDS011;10222;50.848;4.336;2023-03-19T01:41:16;2.40;;;1.77;;
20122;SDS011;10222;50.848;4.336;2023-03-19T01:43:42;3.53;;;2.10;;
20122;SDS011;10222;50.848;4.336;2023-03-19T01:48:57;3.73;;;1.70;;
20122;SDS011;10222;50.848;4.336;2023-03-19T01:51:27;5.33;;;2.37;;
20122;SDS011;10222;50.848;4.336;2023-03-19T01:53:59;2.37;;;1.80;;
20122;SDS011;10222;50.848;4.336;2023-03-19T01:56:30;3.60;;;1.83;;
20122;SDS011;10222;50.848;4.336;2023-03-19T01:59:02;2.13;;;1.60;;
20122;SDS011;10222;50.848;4.336;2023-03-19T02:01:29;5.23;;;1.67;;
20122;SDS011;10222;50.848;4.336;2023-03-19T02:03:57;2.57;;;2.07;;
20122;SDS011;10222;50.848;4.336;2023-03-19T02:06:24;3.20;;;1.87;;
20122;SDS011;10222;50.848;4.336;2023-03-19T02:08:52;4.83;;;2.20;;
20122;SDS011;10222;50.848;4.336;2023-03-19T02:11:18;2.87;;;2.20;;
20122;SDS011;10222;50.848;4.336;2023-03-19T02:13:45;2.63;;;1.87;;
20122;SDS011;10222;50.848;4.336;2023-03-19T02:16:13;2.80;;;1.97;;
20122;SDS011;10222;50.848;4.336;2023-03-19T02:18:40;2.90;;;1.80;;
20122;SDS011;10222;50.848;4.336;2023-03-19T02:21:07;3.67;;;1.67;;
20122;SDS011;10222;50.848;4.336;2023-03-19T02:26:15;4.23;;;2.13;;
20122;SDS011;10222;50.848;4.336;2023-03-19T02:28:42;2.33;;;1.87;;
20122;SDS011;10222;50.848;4.336;2023-03-19T02:31:10;3.00;;;2.00;;
20122;SDS011;10222;50.848;4.336;2023-03-19T02:33:36;3.10;;;2.10;;
20122;SDS011;10222;50.848;4.336;2023-03-19T02:36:04;4.03;;;1.97;;
20122;SDS011;10222;50.848;4.336;2023-03-19T02:38:31;3.23;;;2.40;;
20122;SDS011;10222;50.848;4.336;2023-03-19T02:41:05;4.10;;;2.43;;
20122;SDS011;10222;50.848;4.336;2023-03-19T02:43:32;4.07;;;2.27;;
20122;SDS011;10222;50.848;4.336;2023-03-19T02:46:01;4.70;;;2.27;;
20122;SDS011;10222;50.848;4.336;2023-03-19T02:48:28;6.23;;;2.73;;
20122;SDS011;10222;50.848;4.336;2023-03-19T02:50:54;3.73;;;2.73;;
20122;SDS011;10222;50.848;4.336;2023-03-19T02:53:21;3.43;;;2.33;;
20122;SDS011;10222;50.848;4.336;2023-03-19T02:55:47;3.37;;;2.40;;
20122;SDS011;10222;50.848;4.336;2023-03-19T02:58:14;4.10;;;2.53;;
20122;SDS011;10222;50.848;4.336;2023-03-19T03:00:40;4.97;;;2.80;;
20122;SDS011;10222;50.848;4.336;2023-03-19T03:03:07;3.60;;;2.50;;
20122;SDS011;10222;50.848;4.336;2023-03-19T03:05:33;4.87;;;2.70;;
20122;SDS011;10222;50.848;4.336;2023-03-19T03:07:59;4.43;;;2.87;;
20122;SDS011;10222;50.848;4.336;2023-03-19T03:10:26;5.93;;;2.60;;
20122;SDS011;10222;50.848;4.336;2023-03-19T03:12:54;4.77;;;2.90;;
20122;SDS011;10222;50.848;4.336;2023-03-19T03:15:20;5.83;;;3.40;;
20122;SDS011;10222;50.848;4.336;2023-03-19T03:17:49;4.23;;;3.13;;
20122;SDS011;10222;50.848;4.336;2023-03-19T03:20:16;4.73;;;3.10;;
20122;SDS011;10222;50.848;4.336;2023-03-19T03:22:44;5.40;;;2.97;;
20122;SDS011;10222;50.848;4.336;2023-03-19T03:25:10;7.93;;;3.13;;
20122;SDS011;10222;50.848;4.336;2023-03-19T03:27:37;6.93;;;3.30;;
20122;SDS011;10222;50.848;4.336;2023-03-19T03:30:04;4.57;;;3.13;;
20122;SDS011;10222;50.848;4.336;2023-03-19T03:32:32;6.53;;;3.70;;
20122;SDS011;10222;50.848;4.336;2023-03-19T03:34:58;5.13;;;3.20;;
20122;SDS011;10222;50.848;4.336;2023-03-19T03:37:24;5.93;;;2.90;;
20122;SDS011;10222;50.848;4.336;2023-03-19T03:39:52;7.13;;;3.50;;
20122;SDS011;10222;50.848;4.336;2023-03-19T03:42:19;6.90;;;3.63;;
20122;SDS011;10222;50.848;4.336;2023-03-19T03:44:45;5.63;;;3.77;;
20122;SDS011;10222;50.848;4.336;2023-03-19T03:47:13;4.90;;;3.63;;
20122;SDS011;10222;50.848;4.336;2023-03-19T03:49:39;5.87;;;3.63;;
20122;SDS011;10222;50.848;4.336;2023-03-19T03:52:05;5.83;;;3.67;;
20122;SDS011;10222;50.848;4.336;2023-03-19T03:54:33;5.97;;;3.60;;
20122;SDS011;10222;50.848;4.336;2023-03-19T03:56:59;4.30;;;3.30;;
20122;SDS011;10222;50.848;4.336;2023-03-19T03:59:27;5.50;;;3.47;;
20122;SDS011;10222;50.848;4.336;2023-03-19T04:01:54;6.37;;;3.97;;
20122;SDS011;10222;50.848;4.336;2023-03-19T04:04:20;9.63;;;3.80;;
20122;SDS011;10222;50.848;4.336;2023-03-19T04:06:46;5.90;;;3.87;;
20122;SDS011;10222;50.848;4.336;2023-03-19T04:09:12;8.43;;;4.33;;
20122;SDS011;10222;50.848;4.336;2023-03-19T04:11:39;8.60;;;4.77;;
20122;SDS011;10222;50.848;4.336;2023-03-19T04:14:05;7.40;;;4.00;;
20122;SDS011;10222;50.848;4.336;2023-03-19T04:16:33;6.87;;;3.70;;
20122;SDS011;10222;50.848;4.336;2023-03-19T04:18:59;6.40;;;3.90;;
20122;SDS011;10222;50.848;4.336;2023-03-19T04:21:26;7.00;;;4.30;;
20122;SDS011;10222;50.848;4.336;2023-03-19T04:23:54;7.60;;;3.80;;
20122;SDS011;10222;50.848;4.336;2023-03-19T04:26:20;6.60;;;3.00;;
20122;SDS011;10222;50.848;4.336;2023-03-19T04:28:48;5.20;;;3.27;;
20122;SDS011;10222;50.848;4.336;2023-03-19T04:31:14;5.33;;;3.43;;
20122;SDS011;10222;50.848;4.336;2023-03-19T04:33:40;4.70;;;3.33;;
20122;SDS011;10222;50.848;4.336;2023-03-19T04:36:06;4.70;;;3.53;;
20122;SDS011;10222;50.848;4.336;2023-03-19T04:38:33;8.97;;;4.07;;
20122;SDS011;10222;50.848;4.336;2023-03-19T04:40:59;6.30;;;3.23;;
20122;SDS011;10222;50.848;4.336;2023-03-19T04:43:27;6.07;;;4.03;;
20122;SDS011;10222;50.848;4.336;2023-03-19T04:45:55;7.10;;;4.03;;
20122;SDS011;10222;50.848;4.336;2023-03-19T04:48:21;5.57;;;3.17;;
20122;SDS011;10222;50.848;4.336;2023-03-19T04:50:47;6.20;;;3.37;;
20122;SDS011;10222;50.848;4.336;2023-03-19T04:53:16;5.30;;;3.97;;
20122;SDS011;10222;50.848;4.336;2023-03-19T04:55:43;5.87;;;3.40;;
20122;SDS011;10222;50.848;4.336;2023-03-19T04:58:09;6.07;;;3.83;;
20122;SDS011;10222;50.848;4.336;2023-03-19T05:00:36;5.57;;;3.73;;
20122;SDS011;10222;50.848;4.336;2023-03-19T05:05:31;5.57;;;3.77;;
20122;SDS011;10222;50.848;4.336;2023-03-19T05:07:57;6.77;;;4.57;;
20122;SDS011;10222;50.848;4.336;2023-03-19T05:10:27;5.93;;;3.63;;
20122;SDS011;10222;50.848;4.336;2023-03-19T05:12:53;7.07;;;4.10;;
20122;SDS011;10222;50.848;4.336;2023-03-19T05:15:19;5.53;;;3.80;;
20122;SDS011;10222;50.848;4.336;2023-03-19T05:17:45;6.53;;;3.97;;
20122;SDS011;10222;50.848;4.336;2023-03-19T05:20:11;4.93;;;3.03;;
20122;SDS011;10222;50.848;4.336;2023-03-19T05:22:39;6.33;;;3.90;;
20122;SDS011;10222;50.848;4.336;2023-03-19T05:25:05;6.83;;;4.10;;
20122;SDS011;10222;50.848;4.336;2023-03-19T05:27:33;4.97;;;3.83;;
20122;SDS011;10222;50.848;4.336;2023-03-19T05:29:59;7.40;;;4.30;;
20122;SDS011;10222;50.848;4.336;2023-03-19T05:32:25;7.40;;;3.97;;
20122;SDS011;10222;50.848;4.336;2023-03-19T05:34:51;8.33;;;3.83;;
20122;SDS011;10222;50.848;4.336;2023-03-19T05:37:17;5.97;;;3.53;;
20122;SDS011;10222;50.848;4.336;2023-03-19T05:39:43;9.63;;;3.90;;
20122;SDS011;10222;50.848;4.336;2023-03-19T05:42:09;5.90;;;3.63;;
20122;SDS011;10222;50.848;4.336;2023-03-19T05:44:37;8.77;;;4.17;;
20122;SDS011;10222;50.848;4.336;2023-03-19T05:47:04;4.57;;;3.00;;
20122;SDS011;10222;50.848;4.336;2023-03-19T05:49:32;6.07;;;3.43;;
20122;SDS011;10222;50.848;4.336;2023-03-19T05:51:59;4.67;;;3.60;;
20122;SDS011;10222;50.848;4.336;2023-03-19T05:54:25;7.50;;;3.67;;
20122;SDS011;10222;50.848;4.336;2023-03-19T05:56:52;6.87;;;3.40;;
20122;SDS011;10222;50.848;4.336;2023-03-19T05:59:19;5.33;;;3.30;;
20122;SDS011;10222;50.848;4.336;2023-03-19T06:01:45;7.23;;;3.60;;
20122;SDS011;10222;50.848;4.336;2023-03-19T06:04:12;5.03;;;3.23;;
20122;SDS011;10222;50.848;4.336;2023-03-19T06:06:38;7.83;;;3.47;;
20122;SDS011;10222;50.848;4.336;2023-03-19T06:09:05;6.47;;;2.93;;
20122;SDS011;10222;50.848;4.336;2023-03-19T06:11:31;7.03;;;3.00;;
20122;SDS011;10222;50.848;4.336;2023-03-19T06:13:57;6.27;;;2.97;;
20122;SDS011;10222;50.848;4.336;2023-03-19T06:16:25;5.53;;;2.83;;
20122;SDS011;10222;50.848;4.336;2023-03-19T06:18:52;4.87;;;2.60;;
20122;SDS011;10222;50.848;4.336;2023-03-19T06:21:18;3.83;;;2.60;;
20122;SDS011;10222;50.848;4.336;2023-03-19T06:23:44;6.00;;;2.90;;
20122;SDS011;10222;50.848;4.336;2023-03-19T06:26:10;3.90;;;2.50;;
20122;SDS011;10222;50.848;4.336;2023-03-19T06:28:36;4.53;;;2.30;;
20122;SDS011;10222;50.848;4.336;2023-03-19T06:31:02;5.20;;;3.03;;
20122;SDS011;10222;50.848;4.336;2023-03-19T06:33:28;4.53;;;3.03;;
20122;SDS011;10222;50.848;4.336;2023-03-19T06:35:57;8.10;;;3.40;;
20122;SDS011;10222;50.848;4.336;2023-03-19T06:38:23;5.00;;;3.03;;
20122;SDS011;10222;50.848;4.336;2023-03-19T06:40:49;3.83;;;2.63;;
20122;SDS011;10222;50.848;4.336;2023-03-19T06:43:15;6.23;;;3.03;;
20122;SDS011;10222;50.848;4.336;2023-03-19T06:45:42;4.07;;;2.30;;
20122;SDS011;10222;50.848;4.336;2023-03-19T06:48:08;4.43;;;2.27;;
20122;SDS011;10222;50.848;4.336;2023-03-19T06:50:34;4.63;;;2.93;;
20122;SDS011;10222;50.848;4.336;2023-03-19T06:53:00;4.27;;;2.57;;
20122;SDS011;10222;50.848;4.336;2023-03-19T06:55:26;4.50;;;2.80;;
20122;SDS011;10222;50.848;4.336;2023-03-19T06:57:55;4.93;;;2.53;;
20122;SDS011;10222;50.848;4.336;2023-03-19T07:00:21;6.67;;;2.73;;
20122;SDS011;10222;50.848;4.336;2023-03-19T07:02:48;4.57;;;2.63;;
20122;SDS011;10222;50.848;4.336;2023-03-19T07:05:14;6.80;;;2.50;;
20122;SDS011;10222;50.848;4.336;2023-03-19T07:07:40;5.13;;;3.23;;
20122;SDS011;10222;50.848;4.336;2023-03-19T07:10:06;4.17;;;3.03;;
20122;SDS011;10222;50.848;4.336;2023-03-19T07:12:34;4.83;;;2.90;;
20122;SDS011;10222;50.848;4.336;2023-03-19T07:15:01;3.97;;;2.43;;
20122;SDS011;10222;50.848;4.336;2023-03-19T07:17:28;6.27;;;2.97;;
20122;SDS011;10222;50.848;4.336;2023-03-19T07:19:57;5.63;;;2.43;;
20122;SDS011;10222;50.848;4.336;2023-03-19T07:22:24;3.67;;;2.00;;
20122;SDS011;10222;50.848;4.336;2023-03-19T07:24:50;8.70;;;2.27;;
20122;SDS011;10222;50.848;4.336;2023-03-19T07:27:18;3.27;;;2.40;;
20122;SDS011;10222;50.848;4.336;2023-03-19T07:29:46;4.57;;;2.63;;
20122;SDS011;10222;50.848;4.336;2023-03-19T07:32:13;5.23;;;3.03;;
20122;SDS011;10222;50.848;4.336;2023-03-19T07:34:39;6.77;;;3.30;;
20122;SDS011;10222;50.848;4.336;2023-03-19T07:37:05;4.37;;;2.40;;
20122;SDS011;10222;50.848;4.336;2023-03-19T07:39:32;7.33;;;2.57;;
20122;SDS011;10222;50.848;4.336;2023-03-19T07:41:58;5.43;;;3.13;;
20122;SDS011;10222;50.848;4.336;2023-03-19T07:44:24;4.47;;;2.73;;
20122;SDS011;10222;50.848;4.336;2023-03-19T07:46:50;10.77;;;2.90;;
20122;SDS011;10222;50.848;4.336;2023-03-19T07:49:17;7.70;;;2.37;;
20122;SDS011;10222;50.848;4.336;2023-03-19T07:51:44;4.13;;;2.60;;
20122;SDS011;10222;50.848;4.336;2023-03-19T07:54:10;3.23;;;2.33;;
20122;SDS011;10222;50.848;4.336;2023-03-19T07:56:36;5.33;;;2.97;;
20122;SDS011;10222;50.848;4.336;2023-03-19T07:59:02;5.50;;;2.73;;
20122;SDS011;10222;50.848;4.336;2023-03-19T08:01:29;7.00;;;2.53;;
20122;SDS011;10222;50.848;4.336;2023-03-19T08:03:56;4.33;;;2.47;;
20122;SDS011;10222;50.848;4.336;2023-03-19T08:06:22;7.30;;;3.13;;
20122;SDS011;10222;50.848;4.336;2023-03-19T08:08:48;6.10;;;2.93;;
20122;SDS011;10222;50.848;4.336;2023-03-19T08:11:14;7.03;;;2.77;;
20122;SDS011;10222;50.848;4.336;2023-03-19T08:13:41;7.80;;;2.30;;
20122;SDS011;10222;50.848;4.336;2023-03-19T08:16:07;7.50;;;2.43;;
20122;SDS011;10222;50.848;4.336;2023-03-19T08:18:34;6.63;;;2.60;;
20122;SDS011;10222;50.848;4.336;2023-03-19T08:21:01;5.73;;;2.53;;
20122;SDS011;10222;50.848;4.336;2023-03-19T08:23:29;5.23;;;2.30;;
20122;SDS011;10222;50.848;4.336;2023-03-19T08:25:55;7.43;;;2.53;;
20122;SDS011;10222;50.848;4.336;2023-03-19T08:28:22;5.70;;;2.60;;
20122;SDS011;10222;50.848;4.336;2023-03-19T08:30:49;6.27;;;2.60;;
20122;SDS011;10222;50.848;4.336;2023-03-19T08:33:15;5.07;;;2.13;;
20122;SDS011;10222;50.848;4.336;2023-03-19T08:35:42;7.20;;;2.67;;
20122;SDS011;10222;50.848;4.336;2023-03-19T08:38:08;4.50;;;2.23;;
20122;SDS011;10222;50.848;4.336;2023-03-19T08:40:36;5.00;;;1.70;;
20122;SDS011;10222;50.848;4.336;2023-03-19T08:43:02;4.63;;;2.87;;
20122;SDS011;10222;50.848;4.336;2023-03-19T08:45:29;10.27;;;3.13;;
20122;SDS011;10222;50.848;4.336;2023-03-19T08:47:56;4.83;;;2.00;;
20122;SDS011;10222;50.848;4.336;2023-03-19T08:50:22;5.30;;;1.70;;
20122;SDS011;10222;50.848;4.336;2023-03-19T08:52:49;4.10;;;1.60;;
20122;SDS011;10222;50.848;4.336;2023-03-19T08:55:15;7.03;;;2.63;;
20122;SDS011;10222;50.848;4.336;2023-03-19T08:57:45;5.57;;;2.27;;
20122;SDS011;10222;50.848;4.336;2023-03-19T09:00:11;5.03;;;2.07;;
20122;SDS011;10222;50.848;4.336;2023-03-19T09:02:37;7.70;;;2.20;;
20122;SDS011;10222;50.848;4.336;2023-03-19T09:05:04;6.90;;;2.13;;
20122;SDS011;10222;50.848;4.336;2023-03-19T09:07:32;5.43;;;1.87;;
20122;SDS011;10222;50.848;4.336;2023-03-19T09:09:58;4.70;;;2.17;;
20122;SDS011;10222;50.848;4.336;2023-03-19T09:12:25;6.03;;;2.43;;
20122;SDS011;10222;50.848;4.336;2023-03-19T09:14:52;4.50;;;2.13;;
20122;SDS011;10222;50.848;4.336;2023-03-19T09:17:18;10.37;;;2.87;;
20122;SDS011;10222;50.848;4.336;2023-03-19T09:19:44;7.50;;;2.57;;
20122;SDS011;10222;50.848;4.336;2023-03-19T09:22:10;4.40;;;2.33;;
20122;SDS011;10222;50.848;4.336;2023-03-19T09:24:36;6.87;;;2.40;;
20122;SDS011;10222;50.848;4.336;2023-03-19T09:27:03;4.57;;;2.13;;
20122;SDS011;10222;50.848;4.336;2023-03-19T09:29:29;4.23;;;2.03;;
20122;SDS011;10222;50.848;4.336;2023-03-19T09:31:55;5.87;;;2.30;;
20122;SDS011;10222;50.848;4.336;2023-03-19T09:34:21;7.57;;;2.77;;
20122;SDS011;10222;50.848;4.336;2023-03-19T09:36:47;5.07;;;2.50;;
20122;SDS011;10222;50.848;4.336;2023-03-19T09:39:13;8.10;;;2.23;;
20122;SDS011;10222;50.848;4.336;2023-03-19T09:42:16;6.73;;;2.67;;
20122;SDS011;10222;50.848;4.336;2023-03-19T09:44:35;8.50;;;2.50;;
20122;SDS011;10222;50.848;4.336;2023-03-19T09:49:51;3.67;;;2.10;;
20122;SDS011;10222;50.848;4.336;2023-03-19T09:54:51;4.87;;;2.60;;
20122;SDS011;10222;50.848;4.336;2023-03-19T09:57:21;8.30;;;2.40;;
20122;SDS011;10222;50.848;4.336;2023-03-19T09:59:47;3.83;;;2.57;;
20122;SDS011;10222;50.848;4.336;2023-03-19T10:17:53;7.80;;;2.33;;
20122;SDS011;10222;50.848;4.336;2023-03-19T10:22:48;8.50;;;3.40;;
20122;SDS011;10222;50.848;4.336;2023-03-19T10:25:21;6.33;;;2.67;;
20122;SDS011;10222;50.848;4.336;2023-03-19T10:27:55;6.63;;;2.53;;
20122;SDS011;10222;50.848;4.336;2023-03-19T10:30:21;5.10;;;2.63;;
20122;SDS011;10222;50.848;4.336;2023-03-19T10:32:51;11.50;;;2.40;;
20122;SDS011;10222;50.848;4.336;2023-03-19T10:35:21;9.73;;;2.70;;
20122;SDS011;10222;50.848;4.336;2023-03-19T10:37:48;10.00;;;3.03;;
20122;SDS011;10222;50.848;4.336;2023-03-19T10:40:27;4.43;;;2.90;;
20122;SDS011;10222;50.848;4.336;2023-03-19T10:43:03;8.60;;;2.90;;
20122;SDS011;10222;50.848;4.336;2023-03-19T10:45:34;4.60;;;2.70;;
20122;SDS011;10222;50.848;4.336;2023-03-19T10:48:01;6.67;;;2.73;;
20122;SDS011;10222;50.848;4.336;2023-03-19T10:50:31;7.47;;;2.43;;
20122;SDS011;10222;50.848;4.336;2023-03-19T10:53:02;4.83;;;2.20;;
20122;SDS011;10222;50.848;4.336;2023-03-19T10:55:29;6.73;;;2.87;;
20122;SDS011;10222;50.848;4.336;2023-03-19T10:58:03;4.83;;;2.80;;
20122;SDS011;10222;50.848;4.336;2023-03-19T11:00:30;4.33;;;3.10;;
20122;SDS011;10222;50.848;4.336;2023-03-19T11:02:57;6.10;;;3.07;;
20122;SDS011;10222;50.848;4.336;2023-03-19T11:05:26;7.50;;;3.50;;
20122;SDS011;10222;50.848;4.336;2023-03-19T11:08:04;3.77;;;2.80;;
20122;SDS011;10222;50.848;4.336;2023-03-19T11:10:33;10.67;;;3.47;;
20122;SDS011;10222;50.848;4.336;2023-03-19T11:15:58;6.00;;;3.20;;
20122;SDS011;10222;50.848;4.336;2023-03-19T11:18:36;5.80;;;2.97;;
20122;SDS011;10222;50.848;4.336;2023-03-19T11:21:07;6.80;;;3.47;;
20122;SDS011;10222;50.848;4.336;2023-03-19T11:23:46;7.50;;;3.73;;
20122;SDS011;10222;50.848;4.336;2023-03-19T11:26:19;5.57;;;2.80;;
20122;SDS011;10222;50.848;4.336;2023-03-19T11:28:52;5.87;;;3.53;;
20122;SDS011;10222;50.848;4.336;2023-03-19T11:34:06;7.83;;;3.63;;
20122;SDS011;10222;50.848;4.336;2023-03-19T11:36:40;7.57;;;3.93;;
20122;SDS011;10222;50.848;4.336;2023-03-19T11:41:52;5.20;;;3.20;;
20122;SDS011;10222;50.848;4.336;2023-03-19T11:46:52;7.13;;;3.87;;
20122;SDS011;10222;50.848;4.336;2023-03-19T11:55:18;5.90;;;3.50;;
20122;SDS011;10222;50.848;4.336;2023-03-19T11:59:58;8.23;;;4.40;;
20122;SDS011;10222;50.848;4.336;2023-03-19T12:10:02;14.57;;;5.83;;
20122;SDS011;10222;50.848;4.336;2023-03-19T12:20:31;11.10;;;5.27;;
20122;SDS011;10222;50.848;4.336;2023-03-19T12:23:07;9.63;;;5.50;;
20122;SDS011;10222;50.848;4.336;2023-03-19T12:28:25;9.13;;;5.13;;
20122;SDS011;10222;50.848;4.336;2023-03-19T12:35:49;8.17;;;4.70;;
20122;SDS011;10222;50.848;4.336;2023-03-19T12:41:05;11.50;;;3.93;;
20122;SDS011;10222;50.848;4.336;2023-03-19T12:46:22;9.93;;;5.10;;
20122;SDS011;10222;50.848;4.336;2023-03-19T12:51:49;10.57;;;4.47;;
20122;SDS011;10222;50.848;4.336;2023-03-19T12:54:31;7.77;;;4.00;;
20122;SDS011;10222;50.848;4.336;2023-03-19T12:57:08;8.17;;;4.27;;
20122;SDS011;10222;50.848;4.336;2023-03-19T12:59:43;8.53;;;3.77;;
20122;SDS011;10222;50.848;4.336;2023-03-19T13:02:24;10.17;;;5.00;;
20122;SDS011;10222;50.848;4.336;2023-03-19T13:10:22;9.60;;;5.20;;
20122;SDS011;10222;50.848;4.336;2023-03-19T13:12:49;9.00;;;4.20;;
20122;SDS011;10222;50.848;4.336;2023-03-19T13:15:16;8.40;;;4.90;;
20122;SDS011;10222;50.848;4.336;2023-03-19T13:22:50;8.70;;;4.53;;
20122;SDS011;10222;50.848;4.336;2023-03-19T13:25:26;8.03;;;4.50;;
20122;SDS011;10222;50.848;4.336;2023-03-19T13:27:57;8.50;;;4.27;;
20122;SDS011;10222;50.848;4.336;2023-03-19T13:30:30;7.83;;;3.97;;
20122;SDS011;10222;50.848;4.336;2023-03-19T13:33:03;8.23;;;3.70;;
20122;SDS011;10222;50.848;4.336;2023-03-19T13:35:37;6.20;;;3.60;;
20122;SDS011;10222;50.848;4.336;2023-03-19T13:40:40;7.87;;;3.80;;
20122;SDS011;10222;50.848;4.336;2023-03-19T13:43:38;6.73;;;3.63;;
20122;SDS011;10222;50.848;4.336;2023-03-19T13:49:21;6.97;;;3.40;;
20122;SDS011;10222;50.848;4.336;2023-03-19T13:51:23;6.43;;;3.50;;
20122;SDS011;10222;50.848;4.336;2023-03-19T13:53:51;8.53;;;3.70;;
20122;SDS011;10222;50.848;4.336;2023-03-19T13:56:19;7.43;;;3.53;;
20122;SDS011;10222;50.848;4.336;2023-03-19T13:58:51;6.63;;;3.30;;
20122;SDS011;10222;50.848;4.336;2023-03-19T14:04:04;6.63;;;3.03;;
20122;SDS011;10222;50.848;4.336;2023-03-19T14:09:01;4.10;;;2.63;;
20122;SDS011;10222;50.848;4.336;2023-03-19T14:11:28;4.13;;;2.83;;
20122;SDS011;10222;50.848;4.336;2023-03-19T14:13:58;4.40;;;2.77;;
20122;SDS011;10222;50.848;4.336;2023-03-19T14:16:28;5.40;;;3.30;;
20122;SDS011;10222;50.848;4.336;2023-03-19T14:18:59;7.47;;;3.87;;
20122;SDS011;10222;50.848;4.336;2023-03-19T14:21:30;6.03;;;3.30;;
20122;SDS011;10222;50.848;4.336;2023-03-19T14:24:19;6.37;;;3.43;;
20122;SDS011;10222;50.848;4.336;2023-03-19T14:26:44;7.00;;;3.60;;
20122;SDS011;10222;50.848;4.336;2023-03-19T14:29:12;6.57;;;3.50;;
20122;SDS011;10222;50.848;4.336;2023-03-19T14:31:49;4.37;;;3.47;;
20122;SDS011;10222;50.848;4.336;2023-03-19T14:34:18;6.63;;;3.17;;
20122;SDS011;10222;50.848;4.336;2023-03-19T14:36:47;6.17;;;3.13;;
20122;SDS011;10222;50.848;4.336;2023-03-19T14:39:19;7.60;;;3.97;;
20122;SDS011;10222;50.848;4.336;2023-03-19T14:41:46;5.57;;;3.37;;
20122;SDS011;10222;50.848;4.336;2023-03-19T14:56:52;28.50;;;11.90;;
20122;SDS011;10222;50.848;4.336;2023-03-19T14:59:20;5.73;;;2.63;;
20122;SDS011;10222;50.848;4.336;2023-03-19T15:01:50;4.90;;;3.00;;
20122;SDS011;10222;50.848;4.336;2023-03-19T15:04:19;3.27;;;2.00;;
20122;SDS011;10222;50.848;4.336;2023-03-19T15:06:48;4.80;;;2.30;;
20122;SDS011;10222;50.848;4.336;2023-03-19T15:09:26;3.00;;;1.90;;
20122;SDS011;10222;50.848;4.336;2023-03-19T15:11:59;3.37;;;1.40;;
20122;SDS011;10222;50.848;4.336;2023-03-19T15:19:40;4.10;;;1.47;;
20122;SDS011;10222;50.848;4.336;2023-03-19T15:22:13;1.57;;;1.43;;
20122;SDS011;10222;50.848;4.336;2023-03-19T15:24:41;4.20;;;2.00;;
20122;SDS011;10222;50.848;4.336;2023-03-19T15:27:23;3.57;;;1.60;;
20122;SDS011;10222;50.848;4.336;2023-03-19T15:29:50;3.33;;;1.93;;
20122;SDS011;10222;50.848;4.336;2023-03-19T15:32:36;4.43;;;2.17;;
20122;SDS011;10222;50.848;4.336;2023-03-19T15:35:03;5.03;;;1.80;;
20122;SDS011;10222;50.848;4.336;2023-03-19T15:37:30;5.27;;;2.07;;
20122;SDS011;10222;50.848;4.336;2023-03-19T15:39:57;5.70;;;2.20;;
20122;SDS011;10222;50.848;4.336;2023-03-19T15:42:25;3.80;;;2.00;;
20122;SDS011;10222;50.848;4.336;2023-03-19T15:44:53;3.93;;;2.00;;
20122;SDS011;10222;50.848;4.336;2023-03-19T15:47:23;3.43;;;2.07;;
20122;SDS011;10222;50.848;4.336;2023-03-19T15:50:01;2.00;;;1.73;;
20122;SDS011;10222;50.848;4.336;2023-03-19T15:52:30;6.20;;;2.40;;
20122;SDS011;10222;50.848;4.336;2023-03-19T15:54:59;7.33;;;2.10;;
20122;SDS011;10222;50.848;4.336;2023-03-19T15:57:25;6.00;;;3.10;;
20122;SDS011;10222;50.848;4.336;2023-03-19T15:59:52;5.80;;;2.43;;
20122;SDS011;10222;50.848;4.336;2023-03-19T16:02:24;6.50;;;2.27;;
20122;SDS011;10222;50.848;4.336;2023-03-19T16:04:50;3.70;;;2.00;;
20122;SDS011;10222;50.848;4.336;2023-03-19T16:07:21;3.73;;;2.20;;
20122;SDS011;10222;50.848;4.336;2023-03-19T16:09:48;4.87;;;2.43;;
20122;SDS011;10222;50.848;4.336;2023-03-19T16:12:34;3.03;;;2.17;;
20122;SDS011;10222;50.848;4.336;2023-03-19T16:15:18;5.53;;;2.77;;
20122;SDS011;10222;50.848;4.336;2023-03-19T16:17:45;5.47;;;2.50;;
20122;SDS011;10222;50.848;4.336;2023-03-19T16:20:13;6.70;;;2.50;;
20122;SDS011;10222;50.848;4.336;2023-03-19T16:22:39;6.13;;;2.70;;
20122;SDS011;10222;50.848;4.336;2023-03-19T16:25:12;4.60;;;2.20;;
20122;SDS011;10222;50.848;4.336;2023-03-19T16:27:39;4.30;;;2.53;;
20122;SDS011;10222;50.848;4.336;2023-03-19T16:30:24;5.13;;;3.23;;
20122;SDS011;10222;50.848;4.336;2023-03-19T16:33:01;4.17;;;2.33;;
20122;SDS011;10222;50.848;4.336;2023-03-19T16:35:27;9.07;;;3.00;;
20122;SDS011;10222;50.848;4.336;2023-03-19T16:38:04;4.97;;;2.43;;
20122;SDS011;10222;50.848;4.336;2023-03-19T16:40:35;4.33;;;2.50;;
20122;SDS011;10222;50.848;4.336;2023-03-19T16:43:11;5.57;;;2.60;;
20122;SDS011;10222;50.848;4.336;2023-03-19T16:45:39;7.27;;;2.90;;
20122;SDS011;10222;50.848;4.336;2023-03-19T16:48:06;5.17;;;2.13;;
20122;SDS011;10222;50.848;4.336;2023-03-19T16:50:40;7.97;;;2.60;;
20122;SDS011;10222;50.848;4.336;2023-03-19T16:55:46;4.33;;;2.50;;
20122;SDS011;10222;50.848;4.336;2023-03-19T16:58:16;6.27;;;2.53;;